Time;durP1;ratioP1;P1;durP2;ratioP2;P2;SDS_P1;SDS_P2;PMS_P1;PMS_P2;Temp;Humidity;BMP_temperature;BMP_pressure;BME280_temperature;BME280_humidity;BME280_pressure;Samples;Min_cycle;Max_cycle;Signal;HPM_P1;HPM_P2
2024/01/28 00:00:56;;;;;;;26.10;13.60;;;;;;;-8.68;100.00;140174.55;110602;1267;23031;-64
2024/01/28 00:03:43;;;;;;;28.10;14.00;;;;;;;-8.64;100.00;140186.16;110627;1266;22129;-61
2024/01/28 00:06:29;;;;;;;22.30;12.70;;;;;;;-8.62;100.00;140190.34;110613;1267;22327;-59
2024/01/28 00:09:16;;;;;;;23.70;13.10;;;;;;;-8.62;100.00;140188.84;110738;1261;22317;-59
2024/01/28 00:12:02;;;;;;;23.10;13.70;;;;;;;-8.63;100.00;140187.59;110831;1267;22143;-59
2024/01/28 00:14:49;;;;;;;22.70;13.70;;;;;;;-8.60;100.00;140194.52;110569;1274;22130;-60
2024/01/28 00:17:35;;;;;;;25.40;14.20;;;;;;;-8.57;100.00;140201.19;110566;1273;22134;-63
2024/01/28 00:20:22;;;;;;;23.50;14.00;;;;;;;-8.52;100.00;140213.52;110611;1263;22178;-63
2024/01/28 00:23:08;;;;;;;26.50;15.10;;;;;;;-8.49;100.00;140220.41;110587;1273;22133;-62
2024/01/28 00:25:54;;;;;;;24.80;14.30;;;;;;;-8.44;100.00;140231.50;110702;1269;22220;-61
2024/01/28 00:28:40;;;;;;;24.80;13.70;;;;;;;-8.47;100.00;140225.83;110677;1273;22308;-65
2024/01/28 00:31:26;;;;;;;25.60;14.30;;;;;;;-8.49;100.00;140220.17;110633;1268;22355;-58
2024/01/28 00:34:12;;;;;;;24.30;13.40;;;;;;;-8.53;100.00;140212.77;110665;1268;22360;-64
2024/01/28 00:37:02;;;;;;;24.00;14.60;;;;;;;-8.53;100.00;140211.28;110589;1273;22938;-61
2024/01/28 00:39:48;;;;;;;26.90;15.20;;;;;;;-8.49;100.00;140219.67;110599;1273;22256;-64
2024/01/28 00:42:35;;;;;;;25.80;14.40;;;;;;;-8.45;100.00;140229.03;110598;1273;22837;-63
2024/01/28 00:45:21;;;;;;;25.60;14.70;;;;;;;-8.43;100.00;140234.22;111230;1256;22990;-62
2024/01/28 00:48:07;;;;;;;23.30;13.90;;;;;;;-8.46;100.00;140226.58;110609;1273;22200;-59
2024/01/28 00:50:54;;;;;;;26.90;15.10;;;;;;;-8.50;100.00;140217.45;110636;1273;22208;-61
2024/01/28 00:53:40;;;;;;;28.00;14.80;;;;;;;-8.54;100.00;140210.55;110574;1273;22855;-62
2024/01/28 00:56:26;;;;;;;22.10;11.90;;;;;;;-8.55;100.00;140208.09;110594;1273;22878;-62
2024/01/28 00:59:12;;;;;;;24.60;14.00;;;;;;;-8.55;100.00;140207.34;110598;1273;22347;-63
2024/01/28 01:01:59;;;;;;;25.60;14.30;;;;;;;-8.54;100.00;140209.56;110602;1272;22149;-61
2024/01/28 01:04:44;;;;;;;24.10;14.60;;;;;;;-8.54;100.00;140210.03;110597;1271;22084;-57
2024/01/28 01:07:30;;;;;;;29.70;14.50;;;;;;;-8.57;100.00;140201.17;110673;1256;23016;-62
2024/01/28 01:10:16;;;;;;;24.80;13.60;;;;;;;-8.57;100.00;140201.67;110662;1271;22153;-58
2024/01/28 01:13:02;;;;;;;25.70;14.60;;;;;;;-8.60;100.00;140195.77;110586;1273;22331;-63
2024/01/28 01:15:48;;;;;;;27.40;14.30;;;;;;;-8.61;100.00;140191.33;110579;1270;22181;-61
2024/01/28 01:18:34;;;;;;;25.80;14.80;;;;;;;-8.61;100.00;140191.80;110666;1270;22145;-67
2024/01/28 01:21:20;;;;;;;25.80;14.60;;;;;;;-8.58;100.00;140199.19;110593;1273;22344;-60
2024/01/28 01:24:07;;;;;;;27.20;15.60;;;;;;;-8.58;100.00;140198.70;110582;1267;23040;-58
2024/01/28 01:26:53;;;;;;;25.80;14.90;;;;;;;-8.60;100.00;140194.03;110729;1269;22301;-60
2024/01/28 01:29:39;;;;;;;27.10;15.90;;;;;;;-8.63;100.00;140186.64;110624;1256;22152;-58
2024/01/28 01:32:26;;;;;;;25.90;14.60;;;;;;;-8.64;100.00;140184.17;110676;1253;22368;-64
2024/01/28 01:35:13;;;;;;;28.70;14.90;;;;;;;-8.64;100.00;140185.91;110570;1269;22305;-58
2024/01/28 01:38:00;;;;;;;27.10;16.00;;;;;;;-8.61;100.00;140192.28;110678;1273;22938;-61
2024/01/28 01:40:46;;;;;;;26.40;15.30;;;;;;;-8.61;100.00;140192.53;110575;1273;22162;-60
2024/01/28 01:43:33;;;;;;;25.60;15.00;;;;;;;-8.62;100.00;140190.08;110703;1265;22304;-64
2024/01/28 01:46:21;;;;;;;30.10;16.20;;;;;;;-8.65;100.00;140182.67;110809;1266;22809;-61
2024/01/28 01:49:08;;;;;;;28.80;15.60;;;;;;;-8.69;100.00;140173.33;110560;1270;22360;-59
2024/01/28 01:51:55;;;;;;;24.80;15.50;;;;;;;-8.72;100.00;140165.69;110671;1269;22346;-65
2024/01/28 01:54:43;;;;;;;31.30;16.40;;;;;;;-8.68;100.00;140174.30;110784;1266;22182;-61
2024/01/28 01:57:30;;;;;;;30.50;16.90;;;;;;;-8.66;100.00;140180.45;110593;1273;23044;-56
2024/01/28 02:00:16;;;;;;;32.30;17.10;;;;;;;-8.63;100.00;140187.11;110611;1269;23054;-59
2024/01/28 02:03:03;;;;;;;28.50;15.70;;;;;;;-8.62;100.00;140190.58;110637;1273;22129;-56
2024/01/28 02:05:50;;;;;;;30.70;16.30;;;;;;;-8.67;100.00;140178.97;110645;1273;22301;-55
2024/01/28 02:08:36;;;;;;;27.90;15.20;;;;;;;-8.66;100.00;140178.98;110654;1268;22118;-59
2024/01/28 02:11:23;;;;;;;32.70;16.30;;;;;;;-8.63;100.00;140186.63;110870;1256;22153;-60
2024/01/28 02:14:10;;;;;;;31.20;17.10;;;;;;;-8.59;100.00;140198.22;110753;1258;22220;-62
2024/01/28 02:16:58;;;;;;;28.50;16.40;;;;;;;-8.57;100.00;140201.45;110606;1269;22310;-59
2024/01/28 02:19:44;;;;;;;31.00;17.20;;;;;;;-8.61;100.00;140192.05;110565;1274;22138;-61
2024/01/28 02:22:30;;;;;;;31.30;16.50;;;;;;;-8.63;100.00;140188.09;110529;1270;22118;-64
2024/01/28 02:25:16;;;;;;;31.40;17.00;;;;;;;-8.62;100.00;140188.59;110641;1273;22346;-61
2024/01/28 02:28:02;;;;;;;32.00;16.00;;;;;;;-8.60;100.00;140195.02;110568;1259;22125;-55
2024/01/28 02:30:48;;;;;;;33.30;18.00;;;;;;;-8.55;100.00;140206.63;111047;1256;22162;-59
2024/01/28 02:33:35;;;;;;;28.90;16.20;;;;;;;-8.53;100.00;140211.78;110680;1272;22137;-57
2024/01/28 02:36:21;;;;;;;29.80;17.10;;;;;;;-8.53;100.00;140212.77;110669;1273;22197;-62
2024/01/28 02:39:07;;;;;;;32.60;17.20;;;;;;;-8.57;100.00;140203.16;110678;1273;22171;-61
2024/01/28 02:41:53;;;;;;;35.70;18.50;;;;;;;-8.59;100.00;140196.98;110709;1273;22944;-62
2024/01/28 02:44:40;;;;;;;34.30;17.80;;;;;;;-8.59;100.00;140196.98;110588;1256;22149;-61
2024/01/28 02:47:26;;;;;;;34.60;18.90;;;;;;;-8.55;100.00;140206.86;110658;1273;22114;-58
2024/01/28 02:50:12;;;;;;;32.00;18.30;;;;;;;-8.53;100.00;140212.28;110549;1273;22215;-64
2024/01/28 02:52:58;;;;;;;32.30;17.00;;;;;;;-8.51;100.00;140216.22;110697;1273;22211;-63
2024/01/28 02:55:44;;;;;;;32.70;18.60;;;;;;;-8.51;100.00;140215.47;110695;1273;22127;-61
2024/01/28 02:58:30;;;;;;;32.70;17.20;;;;;;;-8.56;100.00;140204.14;110715;1273;22098;-59
2024/01/28 03:01:17;;;;;;;30.00;16.80;;;;;;;-8.58;100.00;140198.95;110718;1257;22632;-62
2024/01/28 03:04:03;;;;;;;36.40;18.10;;;;;;;-8.59;100.00;140197.72;110559;1273;22125;-62
2024/01/28 03:06:49;;;;;;;32.70;17.10;;;;;;;-8.57;100.00;140201.67;110687;1273;22124;-61
2024/01/28 03:09:35;;;;;;;31.40;17.60;;;;;;;-8.57;100.00;140202.91;110666;1273;22151;-60
2024/01/28 03:12:21;;;;;;;30.00;16.80;;;;;;;-8.56;100.00;140204.88;110526;1273;22099;-60
2024/01/28 03:15:07;;;;;;;32.00;17.70;;;;;;;-8.58;100.00;140199.20;110587;1273;22148;-59
2024/01/28 03:17:54;;;;;;;36.20;18.60;;;;;;;-8.61;100.00;140191.80;110619;1256;22796;-61
2024/01/28 03:20:40;;;;;;;31.40;18.30;;;;;;;-8.64;100.00;140186.38;110677;1267;22317;-62
2024/01/28 03:23:26;;;;;;;36.00;18.10;;;;;;;-8.61;100.00;140193.55;110663;1273;22353;-61
2024/01/28 03:26:12;;;;;;;31.40;16.40;;;;;;;-8.56;100.00;140203.89;110648;1250;22129;-62
2024/01/28 03:28:58;;;;;;;33.70;18.80;;;;;;;-8.52;100.00;140213.50;110689;1266;23079;-59
2024/01/28 03:31:44;;;;;;;33.90;18.60;;;;;;;-8.51;100.00;140215.72;110750;1266;22147;-61
2024/01/28 03:34:30;;;;;;;32.90;17.20;;;;;;;-8.50;100.00;140217.94;110649;1269;22325;-60
2024/01/28 03:37:17;;;;;;;37.40;18.60;;;;;;;-8.49;100.00;140220.66;110648;1272;22312;-61
2024/01/28 03:40:03;;;;;;;32.40;17.50;;;;;;;-8.49;100.00;140219.92;110670;1272;22147;-63
2024/01/28 03:42:49;;;;;;;33.30;18.70;;;;;;;-8.49;100.00;140221.16;110550;1272;22981;-63
2024/01/28 03:45:35;;;;;;;32.70;18.20;;;;;;;-8.47;100.00;140224.59;110662;1272;22299;-62
2024/01/28 03:48:21;;;;;;;33.20;19.30;;;;;;;-8.52;100.00;140213.52;110665;1262;22143;-60
2024/01/28 03:51:08;;;;;;;34.90;18.10;;;;;;;-8.54;100.00;140209.09;110639;1266;22821;-63
2024/01/28 03:53:54;;;;;;;33.20;18.90;;;;;;;-8.56;100.00;140204.16;110772;1266;23009;-60
2024/01/28 03:56:40;;;;;;;37.90;17.40;;;;;;;-8.59;100.00;140198.72;110565;1273;22369;-61
2024/01/28 03:59:27;;;;;;;35.70;19.00;;;;;;;-8.57;100.00;140201.67;110550;1273;22905;-56
2024/01/28 04:02:17;;;;;;;34.10;17.30;;;;;;;-8.56;100.00;140205.61;110653;1271;22375;-64
2024/01/28 04:05:04;;;;;;;37.50;19.60;;;;;;;-8.56;100.00;140203.91;110715;1266;22142;-63
2024/01/28 04:07:51;;;;;;;42.30;21.80;;;;;;;-8.57;100.00;140203.16;110557;1270;22135;-53
2024/01/28 04:10:37;;;;;;;43.30;22.10;;;;;;;-8.57;100.00;140202.16;110653;1272;22333;-64
2024/01/28 04:13:23;;;;;;;37.80;20.10;;;;;;;-8.59;100.00;140198.70;110589;1273;22163;-59
2024/01/28 04:16:09;;;;;;;35.60;19.60;;;;;;;-8.59;100.00;140198.45;110666;1273;22411;-65
2024/01/28 04:18:56;;;;;;;34.30;19.40;;;;;;;-8.61;100.00;140191.55;110700;1266;22326;-58
2024/01/28 04:21:43;;;;;;;38.60;20.40;;;;;;;-8.66;100.00;140179.97;110674;1271;22141;-60
2024/01/28 04:24:29;;;;;;;39.10;19.90;;;;;;;-8.68;100.00;140175.53;110624;1272;22842;-58
2024/01/28 04:27:15;;;;;;;36.70;20.20;;;;;;;-8.65;100.00;140182.70;110888;1265;22858;-61
2024/01/28 04:30:01;;;;;;;39.10;19.20;;;;;;;-8.62;100.00;140189.83;110660;1273;22901;-61
2024/01/28 04:32:49;;;;;;;36.90;19.70;;;;;;;-8.61;100.00;140191.08;110514;1273;22260;-63
2024/01/28 04:35:35;;;;;;;37.30;18.50;;;;;;;-8.61;100.00;140191.08;110505;1273;22169;-58
2024/01/28 04:38:21;;;;;;;38.10;20.00;;;;;;;-8.56;100.00;140204.38;110556;1273;22199;-64
2024/01/28 04:41:08;;;;;;;39.20;19.90;;;;;;;-8.48;100.00;140223.14;110501;1273;22129;-60
2024/01/28 04:43:54;;;;;;;34.30;19.00;;;;;;;-8.43;100.00;140233.97;110861;1266;22826;-61
2024/01/28 04:46:40;;;;;;;34.90;19.40;;;;;;;-8.42;100.00;140237.17;110534;1273;22145;-57
2024/01/28 04:49:26;;;;;;;36.40;18.60;;;;;;;-8.42;100.00;140238.17;110540;1273;22125;-60
2024/01/28 04:52:13;;;;;;;36.40;20.80;;;;;;;-8.44;100.00;140233.23;110563;1273;22127;-60
2024/01/28 04:54:59;;;;;;;37.90;21.20;;;;;;;-8.47;100.00;140224.11;110513;1273;22174;-61
2024/01/28 04:57:45;;;;;;;31.80;17.10;;;;;;;-8.53;100.00;140212.53;110533;1273;22126;-63
2024/01/28 05:00:31;;;;;;;34.10;18.00;;;;;;;-8.56;100.00;140204.16;110501;1274;22127;-59
2024/01/28 05:03:17;;;;;;;37.10;18.90;;;;;;;-8.57;100.00;140201.44;110533;1273;22119;-60
2024/01/28 05:06:04;;;;;;;37.70;19.70;;;;;;;-8.58;100.00;140200.17;110540;1273;22127;-60
2024/01/28 05:08:50;;;;;;;38.70;19.50;;;;;;;-8.58;100.00;140200.69;110554;1273;22247;-58
2024/01/28 05:11:36;;;;;;;38.60;20.70;;;;;;;-8.61;100.00;140192.30;110508;1273;22944;-61
2024/01/28 05:14:22;;;;;;;37.40;19.70;;;;;;;-8.65;100.00;140183.92;110564;1273;22122;-59
2024/01/28 05:17:08;;;;;;;36.30;19.30;;;;;;;-8.68;100.00;140175.78;110635;1272;22168;-63
2024/01/28 05:19:54;;;;;;;35.90;19.40;;;;;;;-8.66;100.00;140180.47;110639;1272;22172;-60
2024/01/28 05:22:40;;;;;;;35.90;19.80;;;;;;;-8.64;100.00;140183.69;110655;1256;22155;-59
2024/01/28 05:25:26;;;;;;;33.50;18.50;;;;;;;-8.61;100.00;140192.80;110614;1273;22124;-64
2024/01/28 05:28:13;;;;;;;37.60;19.40;;;;;;;-8.60;100.00;140196.00;110777;1269;22293;-65
2024/01/28 05:30:59;;;;;;;37.60;19.00;;;;;;;-8.57;100.00;140202.17;110531;1273;22301;-62
2024/01/28 05:33:46;;;;;;;40.10;19.80;;;;;;;-8.56;100.00;140203.91;110671;1269;22331;-61
2024/01/28 05:36:33;;;;;;;39.20;20.60;;;;;;;-8.56;100.00;140203.16;110635;1273;22136;-62
2024/01/28 05:39:19;;;;;;;36.20;19.50;;;;;;;-8.59;100.00;140197.95;110711;1255;22156;-61
2024/01/28 05:42:05;;;;;;;38.40;20.80;;;;;;;-8.61;100.00;140193.53;110783;1266;22338;-64
2024/01/28 05:44:51;;;;;;;36.70;19.40;;;;;;;-8.59;100.00;140198.47;110542;1272;22315;-63
2024/01/28 05:47:37;;;;;;;39.70;20.60;;;;;;;-8.59;100.00;140196.50;110728;1266;22289;-60
2024/01/28 05:50:23;;;;;;;38.00;20.00;;;;;;;-8.63;100.00;140187.84;110573;1257;22112;-62
2024/01/28 05:53:09;;;;;;;35.30;18.60;;;;;;;-8.64;100.00;140185.91;110734;1267;22306;-60
2024/01/28 05:55:55;;;;;;;39.50;19.60;;;;;;;-8.66;100.00;140180.97;110597;1273;22379;-63
2024/01/28 05:58:41;;;;;;;35.80;19.80;;;;;;;-8.68;100.00;140174.05;110614;1273;22321;-62
2024/01/28 06:01:27;;;;;;;39.50;19.70;;;;;;;-8.67;100.00;140177.48;110713;1272;22198;-63
2024/01/28 06:04:13;;;;;;;42.30;22.00;;;;;;;-8.61;100.00;140191.08;110552;1270;22282;-62
2024/01/28 06:07:00;;;;;;;40.60;21.60;;;;;;;-8.58;100.00;140200.20;110629;1267;22302;-57
2024/01/28 06:09:46;;;;;;;39.50;21.30;;;;;;;-8.53;100.00;140212.52;110606;1273;22134;-60
2024/01/28 06:12:33;;;;;;;37.50;19.30;;;;;;;-8.51;100.00;140215.97;110697;1265;23122;-61
2024/01/28 06:15:19;;;;;;;38.50;21.40;;;;;;;-8.54;100.00;140209.33;110633;1273;22131;-64
2024/01/28 06:18:05;;;;;;;34.90;18.40;;;;;;;-8.56;100.00;140205.64;110642;1266;22139;-60
2024/01/28 06:20:51;;;;;;;35.40;19.40;;;;;;;-8.57;100.00;140201.42;110663;1270;22342;-62
2024/01/28 06:23:38;;;;;;;37.20;20.10;;;;;;;-8.56;100.00;140206.11;110555;1273;22134;-62
2024/01/28 06:26:24;;;;;;;38.00;20.10;;;;;;;-8.58;100.00;140200.94;110658;1273;22320;-59
2024/01/28 06:29:10;;;;;;;36.40;19.50;;;;;;;-8.60;100.00;140194.28;110653;1272;22813;-59
2024/01/28 06:31:56;;;;;;;34.60;19.50;;;;;;;-8.62;100.00;140189.58;110536;1272;128265;-66
2024/01/28 06:34:42;;;;;;;37.10;21.10;;;;;;;-8.63;100.00;140186.41;110617;1272;22074;-64
2024/01/28 06:37:28;;;;;;;35.30;19.90;;;;;;;-8.61;100.00;140191.80;110652;1272;22228;-62
2024/01/28 06:40:14;;;;;;;36.10;20.20;;;;;;;-8.57;100.00;140201.91;110579;1273;22125;-58
2024/01/28 06:43:00;;;;;;;38.20;20.60;;;;;;;-8.52;100.00;140213.53;110645;1273;22202;-66
2024/01/28 06:45:46;;;;;;;35.90;19.80;;;;;;;-8.53;100.00;140212.53;110586;1273;22799;-64
2024/01/28 06:48:33;;;;;;;36.00;19.20;;;;;;;-8.55;100.00;140206.38;110651;1273;22129;-61
2024/01/28 06:51:19;;;;;;;37.10;19.50;;;;;;;-8.55;100.00;140207.09;110661;1273;22149;-65
2024/01/28 06:54:05;;;;;;;37.00;20.40;;;;;;;-8.55;100.00;140208.09;110634;1257;22178;-59
2024/01/28 06:56:52;;;;;;;38.60;20.40;;;;;;;-8.54;100.00;140210.55;110640;1267;22366;-59
2024/01/28 06:59:37;;;;;;;37.50;20.40;;;;;;;-8.48;100.00;140222.38;110600;1272;22284;-59
2024/01/28 07:02:24;;;;;;;35.60;19.30;;;;;;;-8.42;100.00;140236.20;110686;1265;22359;-61
2024/01/28 07:05:11;;;;;;;40.30;22.20;;;;;;;-8.42;100.00;140238.17;110716;1267;22302;-65
2024/01/28 07:07:57;;;;;;;40.90;20.20;;;;;;;-8.46;100.00;140229.03;110852;1266;22340;-64
2024/01/28 07:10:43;;;;;;;37.80;19.60;;;;;;;-8.48;100.00;140222.86;110615;1267;22376;-59
2024/01/28 07:13:30;;;;;;;43.50;20.90;;;;;;;-8.50;100.00;140217.44;110762;1265;22745;-64
2024/01/28 07:16:16;;;;;;;36.60;19.10;;;;;;;-8.51;100.00;140215.72;110592;1266;22451;-61
2024/01/28 07:19:02;;;;;;;45.40;21.40;;;;;;;-8.50;100.00;140217.69;110658;1267;22523;-63
2024/01/28 07:21:50;;;;;;;38.40;20.00;;;;;;;-8.51;100.00;140217.70;110558;1267;22235;-61
2024/01/28 07:24:37;;;;;;;37.90;19.80;;;;;;;-8.47;100.00;140225.83;110591;1267;22308;-59
2024/01/28 07:27:23;;;;;;;36.50;18.40;;;;;;;-8.45;100.00;140229.78;110626;1266;22335;-61
2024/01/28 07:30:09;;;;;;;40.20;21.30;;;;;;;-8.45;100.00;140231.25;110631;1267;22162;-64
2024/01/28 07:32:55;;;;;;;39.50;19.10;;;;;;;-8.43;100.00;140234.22;110670;1267;22119;-60
2024/01/28 07:35:42;;;;;;;36.20;18.70;;;;;;;-8.40;100.00;140241.84;110657;1267;22362;-59
2024/01/28 07:38:28;;;;;;;39.00;20.30;;;;;;;-8.36;100.00;140252.42;110682;1267;22315;-63
2024/01/28 07:41:15;;;;;;;40.30;21.90;;;;;;;-8.35;100.00;140255.14;110648;1266;22848;-63
2024/01/28 07:44:02;;;;;;;41.20;21.70;;;;;;;-8.33;100.00;140260.30;110699;1266;22342;-63
2024/01/28 07:46:48;;;;;;;42.30;21.10;;;;;;;-8.30;100.00;140266.47;110795;1265;22404;-63
2024/01/28 07:49:35;;;;;;;40.70;20.50;;;;;;;-8.33;100.00;140259.83;110595;1267;22145;-62
2024/01/28 07:52:21;;;;;;;42.60;21.40;;;;;;;-8.35;100.00;140254.14;110627;1273;22365;-63
2024/01/28 07:55:07;;;;;;;39.70;21.30;;;;;;;-8.35;100.00;140255.88;110604;1266;23150;-66
2024/01/28 07:57:55;;;;;;;37.30;19.70;;;;;;;-8.34;100.00;140256.13;110558;1267;22320;-65
2024/01/28 08:00:41;;;;;;;46.00;21.60;;;;;;;-8.34;100.00;140257.13;110558;1265;22335;-62
2024/01/28 08:03:27;;;;;;;41.30;21.70;;;;;;;-8.33;100.00;140260.56;110643;1267;22181;-62
2024/01/28 08:06:13;;;;;;;39.80;20.00;;;;;;;-8.30;100.00;140266.97;110658;1267;22325;-62
2024/01/28 08:09:07;;;;;;;42.50;21.30;;;;;;;-8.28;100.00;140270.67;110678;1266;22321;-60
2024/01/28 08:12:27;;;;;;;40.80;21.20;;;;;;;-8.30;100.00;140267.97;110356;1270;22388;-61
2024/01/28 08:15:15;;;;;;;41.70;20.50;;;;;;;-8.27;100.00;140274.63;110453;1269;22160;-61
2024/01/28 08:18:01;;;;;;;46.60;22.10;;;;;;;-8.23;100.00;140284.47;110410;1276;23112;-61
2024/01/28 08:20:48;;;;;;;39.20;19.70;;;;;;;-8.17;100.00;140298.55;110396;1270;22337;-60
2024/01/28 08:23:34;;;;;;;41.70;21.20;;;;;;;-8.16;100.00;140299.78;110315;1276;22185;-63
2024/01/28 08:26:20;;;;;;;39.90;19.80;;;;;;;-8.17;100.00;140297.30;110384;1268;23021;-60
2024/01/28 08:29:06;;;;;;;38.10;19.40;;;;;;;-8.17;100.00;140298.78;110426;1269;22228;-59
2024/01/28 08:31:52;;;;;;;42.90;21.90;;;;;;;-8.19;100.00;140293.86;110322;1270;22319;-61
2024/01/28 08:34:38;;;;;;;37.50;20.30;;;;;;;-8.16;100.00;140299.53;110431;1276;22336;-60
2024/01/28 08:37:25;;;;;;;36.80;19.90;;;;;;;-8.12;100.00;140309.91;110411;1276;23061;-59
2024/01/28 08:40:11;;;;;;;37.90;18.70;;;;;;;-8.05;100.00;140326.41;110357;1269;22186;-63
2024/01/28 08:42:58;;;;;;;42.20;20.30;;;;;;;-8.05;100.00;140325.92;110538;1273;22183;-61
2024/01/28 08:45:44;;;;;;;33.80;17.50;;;;;;;-8.09;100.00;140318.03;110555;1273;22094;-61
2024/01/28 08:48:31;;;;;;;42.40;20.30;;;;;;;-8.11;100.00;140312.63;110539;1273;22134;-63
2024/01/28 08:51:17;;;;;;;38.20;20.00;;;;;;;-8.12;100.00;140310.64;110605;1273;22403;-61
2024/01/28 08:54:03;;;;;;;41.00;21.30;;;;;;;-8.05;100.00;140326.66;110599;1254;23089;-62
2024/01/28 08:56:50;;;;;;;39.40;20.70;;;;;;;-7.94;100.00;140354.30;110632;1267;22224;-60
2024/01/28 08:59:36;;;;;;;37.60;20.50;;;;;;;-7.82;100.00;140383.44;110597;1272;22317;-62
2024/01/28 09:02:22;;;;;;;38.20;19.50;;;;;;;-7.83;100.00;140380.48;110587;1267;22340;-61
2024/01/28 09:05:10;;;;;;;40.00;20.60;;;;;;;-7.84;100.00;140376.77;110578;1272;23095;-60
2024/01/28 09:07:56;;;;;;;31.90;17.40;;;;;;;-7.80;100.00;140387.64;110597;1273;22855;-61
2024/01/28 09:10:42;;;;;;;34.30;18.40;;;;;;;-7.77;100.00;140393.78;110675;1267;22349;-59
2024/01/28 09:13:28;;;;;;;37.50;19.60;;;;;;;-7.73;100.00;140404.41;110556;1266;22329;-60
2024/01/28 09:16:14;;;;;;;36.60;18.80;;;;;;;-7.68;100.00;140416.75;110554;1266;22422;-63
2024/01/28 09:19:03;;;;;;;35.80;18.80;;;;;;;-7.62;100.00;140430.33;110665;1266;22207;-62
2024/01/28 09:21:50;;;;;;;34.50;18.10;;;;;;;-7.54;100.00;140449.33;110676;1266;22309;-61
2024/01/28 09:24:38;;;;;;;31.70;16.30;;;;;;;-7.46;100.00;140468.58;110630;1267;22226;-63
2024/01/28 09:27:25;;;;;;;34.10;18.30;;;;;;;-7.47;100.00;140466.61;110610;1256;22876;-64
2024/01/28 09:30:11;;;;;;;38.00;18.00;;;;;;;-7.46;100.00;140470.06;110698;1266;22345;-63
2024/01/28 09:32:58;;;;;;;34.90;18.50;;;;;;;-7.47;100.00;140466.34;110595;1267;22385;-64
2024/01/28 09:35:46;;;;;;;32.70;16.80;;;;;;;-7.48;100.00;140463.38;110625;1273;22309;-64
2024/01/28 09:38:33;;;;;;;33.20;18.60;;;;;;;-7.47;100.00;140466.34;110636;1266;23055;-63
2024/01/28 09:41:28;;;;;;;37.30;20.30;;;;;;;-7.39;100.00;140487.09;110634;1256;22132;-63
2024/01/28 09:44:14;;;;;;;37.60;19.60;;;;;;;-7.32;100.00;140503.63;110585;1267;22186;-64
2024/01/28 09:47:01;;;;;;;38.50;19.30;;;;;;;-7.34;100.00;140499.66;110526;1273;22343;-64
2024/01/28 09:49:48;;;;;;;36.40;20.30;;;;;;;-7.38;100.00;140489.08;110642;1266;22343;-64
2024/01/28 09:52:35;;;;;;;33.30;18.30;;;;;;;-7.40;100.00;140482.91;110538;1273;22933;-64
2024/01/28 09:55:21;;;;;;;36.00;19.10;;;;;;;-7.37;100.00;140489.80;110715;1250;23097;-64
2024/01/28 09:58:10;;;;;;;33.00;18.80;;;;;;;-7.32;100.00;140502.66;110596;1272;22776;-64
2024/01/28 10:00:56;;;;;;;33.20;17.60;;;;;;;-7.24;100.00;140524.13;110604;1267;22236;-63
2024/01/28 10:03:43;;;;;;;31.80;18.30;;;;;;;-7.17;100.00;140537.70;110597;1260;22320;-63
2024/01/28 10:06:29;;;;;;;33.50;17.40;;;;;;;-7.22;100.00;140528.08;110581;1266;22309;-63
2024/01/28 10:09:16;;;;;;;29.50;16.70;;;;;;;-7.28;100.00;140513.98;110612;1266;22388;-61
2024/01/28 10:12:03;;;;;;;29.20;16.20;;;;;;;-7.31;100.00;140505.34;110584;1267;22339;-63
2024/01/28 10:14:52;;;;;;;30.90;16.50;;;;;;;-7.34;100.00;140499.17;110590;1266;22318;-64
2024/01/28 10:17:38;;;;;;;31.40;17.70;;;;;;;-7.32;100.00;140502.66;110614;1266;22134;-64
2024/01/28 10:20:28;;;;;;;33.40;18.80;;;;;;;-7.28;100.00;140513.25;110560;1254;22327;-65
2024/01/28 10:23:15;;;;;;;33.60;17.60;;;;;;;-7.28;100.00;140512.53;110546;1273;22355;-63
2024/01/28 10:26:01;;;;;;;29.30;16.10;;;;;;;-7.43;100.00;140476.47;110612;1273;22237;-62
2024/01/28 10:28:47;;;;;;;31.40;16.80;;;;;;;-7.55;100.00;140446.84;110551;1265;22212;-64
2024/01/28 10:31:34;;;;;;;26.20;15.20;;;;;;;-7.64;100.00;140427.11;110590;1267;22340;-66
2024/01/28 10:34:20;;;;;;;24.50;14.30;;;;;;;-7.62;100.00;140431.05;110551;1273;22274;-64
2024/01/28 10:37:11;;;;;;;27.40;14.80;;;;;;;-7.56;100.00;140445.13;110734;1260;22100;-64
2024/01/28 10:40:08;;;;;;;28.20;15.90;;;;;;;-7.57;100.00;140443.16;110541;1252;22392;-63
2024/01/28 10:42:56;;;;;;;26.10;15.30;;;;;;;-7.65;100.00;140423.66;110599;1273;22095;-64
2024/01/28 10:45:46;;;;;;;29.50;16.20;;;;;;;-7.70;100.00;140412.08;110578;1273;22860;-65
2024/01/28 10:48:33;;;;;;;28.00;15.40;;;;;;;-7.67;100.00;140417.97;110588;1273;22243;-65
2024/01/28 10:51:20;;;;;;;31.70;17.80;;;;;;;-7.61;100.00;140432.78;110548;1273;22160;-64
2024/01/28 10:54:08;;;;;;;29.80;16.50;;;;;;;-7.51;100.00;140456.50;110547;1256;22236;-65
2024/01/28 10:56:56;;;;;;;32.30;17.80;;;;;;;-7.42;100.00;140478.69;110579;1273;22225;-64
2024/01/28 10:59:42;;;;;;;34.90;18.00;;;;;;;-7.40;100.00;140484.88;110568;1273;22283;-65
2024/01/28 11:02:30;;;;;;;26.70;15.00;;;;;;;-7.36;100.00;140492.53;110588;1252;22124;-63
2024/01/28 11:05:18;;;;;;;28.50;16.50;;;;;;;-7.42;100.00;140477.97;110549;1273;22908;-62
2024/01/28 11:08:08;;;;;;;26.80;15.40;;;;;;;-7.54;100.00;140450.55;110546;1273;22284;-63
2024/01/28 11:10:54;;;;;;;24.80;14.60;;;;;;;-7.50;100.00;140459.69;110579;1273;22096;-65
2024/01/28 11:13:43;;;;;;;27.30;15.20;;;;;;;-7.40;100.00;140484.84;110567;1273;22683;-65
2024/01/28 11:16:30;;;;;;;23.90;14.10;;;;;;;-7.35;100.00;140494.48;110535;1257;23212;-64
2024/01/28 11:19:16;;;;;;;25.10;14.60;;;;;;;-7.38;100.00;140488.08;110558;1273;22164;-64
2024/01/28 11:22:03;;;;;;;27.90;15.60;;;;;;;-7.39;100.00;140484.86;110606;1266;23097;-65
2024/01/28 11:24:52;;;;;;;28.00;15.20;;;;;;;-7.39;100.00;140485.84;110621;1251;22420;-65
2024/01/28 11:27:40;;;;;;;30.00;15.80;;;;;;;-7.35;100.00;140494.97;110606;1266;22229;-66
2024/01/28 11:30:26;;;;;;;24.60;14.00;;;;;;;-7.32;100.00;140503.16;110650;1272;22255;-64
2024/01/28 11:33:15;;;;;;;25.90;15.60;;;;;;;-7.30;100.00;140507.83;110546;1273;22307;-64
2024/01/28 11:36:02;;;;;;;27.10;15.80;;;;;;;-7.33;100.00;140502.16;110634;1270;22846;-64
2024/01/28 11:38:56;;;;;;;28.90;15.10;;;;;;;-7.35;100.00;140497.22;110557;1273;22335;-63
2024/01/28 11:41:44;;;;;;;25.50;14.20;;;;;;;-7.38;100.00;140489.80;110570;1257;23154;-65
2024/01/28 11:44:31;;;;;;;25.60;14.10;;;;;;;-7.41;100.00;140481.16;110701;1253;22372;-63
2024/01/28 11:47:29;;;;;;;24.90;13.90;;;;;;;-7.42;100.00;140479.94;110585;1273;23150;-64
2024/01/28 11:50:16;;;;;;;23.80;13.70;;;;;;;-7.40;100.00;140483.39;110636;1270;22222;-63
2024/01/28 11:53:05;;;;;;;27.30;14.10;;;;;;;-7.48;100.00;140465.84;110661;1273;22143;-64
2024/01/28 11:55:52;;;;;;;23.30;13.50;;;;;;;-7.53;100.00;140451.28;110586;1272;22339;-65
2024/01/28 11:58:38;;;;;;;21.90;13.20;;;;;;;-7.56;100.00;140443.91;110580;1254;22190;-65
2024/01/28 12:01:24;;;;;;;26.10;13.20;;;;;;;-7.63;100.00;140428.09;110716;1266;22206;-64
2024/01/28 12:04:11;;;;;;;23.10;13.10;;;;;;;-7.66;100.00;140420.70;110683;1266;22332;-66
2024/01/28 12:06:57;;;;;;;26.10;15.90;;;;;;;-7.62;100.00;140429.58;110605;1272;22345;-64
2024/01/28 12:09:43;;;;;;;22.00;13.30;;;;;;;-7.59;100.00;140437.97;110656;1251;22133;-67
2024/01/28 12:12:34;;;;;;;24.10;14.30;;;;;;;-7.63;100.00;140428.59;110544;1273;22228;-63
2024/01/28 12:15:21;;;;;;;22.10;13.50;;;;;;;-7.67;100.00;140417.97;110550;1273;22901;-66
2024/01/28 12:18:07;;;;;;;24.30;14.40;;;;;;;-7.67;100.00;140418.47;110661;1252;22373;-65
2024/01/28 12:20:56;;;;;;;24.50;14.30;;;;;;;-7.70;100.00;140411.33;110569;1267;22224;-65